Time;durP1;ratioP1;P1;durP2;ratioP2;P2;SDS_P1;SDS_P2;PMS_P1;PMS_P2;Temp;Humidity;BMP_temperature;BMP_pressure;BME280_temperature;BME280_humidity;BME280_pressure;Samples;Min_cycle;Max_cycle;Signal;HPM_P1;HPM_P2
2022/10/02 00:00:33;;;;;;;1999.90;999.90;;;11.60;99.90;;;;;;5103460;27;20040;-65
2022/10/02 00:03:07;;;;;;;1999.90;999.90;;;11.60;99.90;;;;;;5106375;27;20043;-64
2022/10/02 00:05:41;;;;;;;1999.90;999.90;;;11.50;99.90;;;;;;5099915;28;20505;-64
2022/10/02 00:08:20;;;;;;;1999.90;999.90;;;11.50;99.90;;;;;;5105055;28;20047;-65
2022/10/02 00:10:51;;;;;;;1999.90;999.90;;;11.40;99.90;;;;;;5083055;28;20092;-64
2022/10/02 00:13:25;;;;;;;1999.90;999.90;;;11.30;99.90;;;;;;5092046;28;20042;-64
2022/10/02 00:15:53;;;;;;;1999.90;999.90;;;11.20;99.90;;;;;;5092138;28;20494;-65
2022/10/02 00:18:27;;;;;;;1999.90;999.90;;;11.20;99.90;;;;;;5105958;28;20055;-64
2022/10/02 00:21:20;;;;;;;1999.90;999.90;;;11.10;99.90;;;;;;5092483;28;20503;-64
2022/10/02 00:23:50;;;;;;;1999.90;999.90;;;11.00;99.90;;;;;;5102358;28;20409;-64
2022/10/02 00:26:30;;;;;;;1999.90;999.90;;;11.00;99.90;;;;;;5092180;28;20393;-65
2022/10/02 00:29:08;;;;;;;1999.90;999.90;;;11.00;99.90;;;;;;5081915;28;20083;-64
2022/10/02 00:32:14;;;;;;;1999.90;999.90;;;10.90;99.90;;;;;;5102259;27;20047;-65
2022/10/02 00:34:59;;;;;;;1999.90;999.90;;;10.90;99.90;;;;;;5107073;28;20044;-65
2022/10/02 00:37:35;;;;;;;1999.90;999.90;;;10.90;99.90;;;;;;5117962;27;20036;-64
2022/10/02 00:40:48;;;;;;;1999.90;999.90;;;10.90;99.90;;;;;;5081294;28;20067;-64
2022/10/02 00:43:50;;;;;;;1999.90;999.90;;;10.80;99.90;;;;;;5106091;27;20402;-64
2022/10/02 00:47:00;;;;;;;1999.90;999.90;;;10.80;99.90;;;;;;5108680;28;20125;-65
2022/10/02 00:49:41;;;;;;;1999.90;999.90;;;10.80;99.90;;;;;;5028444;28;20045;-64
2022/10/02 00:52:29;;;;;;;1999.90;999.90;;;10.70;99.90;;;;;;5099192;28;20408;-64
2022/10/02 00:55:21;;;;;;;1999.90;999.90;;;10.70;99.90;;;;;;5090198;28;20043;-66
2022/10/02 00:58:02;;;;;;;1999.90;999.90;;;10.70;99.90;;;;;;5089761;28;20051;-64
2022/10/02 01:00:27;;;;;;;1999.90;999.90;;;10.70;99.90;;;;;;5086522;28;20042;-64
2022/10/02 01:03:03;;;;;;;1999.90;999.90;;;10.70;99.90;;;;;;5095558;28;20544;-64
2022/10/02 01:05:29;;;;;;;1999.90;999.90;;;10.60;99.90;;;;;;5082310;28;20052;-64
2022/10/02 01:07:56;;;;;;;1999.90;999.90;;;10.60;99.90;;;;;;5107437;27;20051;-64
2022/10/02 01:10:26;;;;;;;1999.90;999.90;;;10.60;99.90;;;;;;5106816;27;20040;-64
2022/10/02 01:12:53;;;;;;;1999.90;999.90;;;10.60;99.90;;;;;;5090867;28;20031;-64
2022/10/02 01:15:21;;;;;;;1999.90;999.90;;;10.60;99.90;;;;;;5088714;28;20035;-64
2022/10/02 01:17:50;;;;;;;1999.90;999.90;;;10.60;99.90;;;;;;5090409;28;20043;-64
2022/10/02 01:20:25;;;;;;;1999.90;999.90;;;10.60;99.90;;;;;;5093036;28;20450;-64
2022/10/02 01:23:18;;;;;;;1999.90;999.90;;;10.60;99.90;;;;;;5094049;27;20157;-64
2022/10/02 01:25:44;;;;;;;;;;;10.60;99.90;;;;;;5104535;27;20027;-64
2022/10/02 01:28:10;;;;;;;1999.90;999.90;;;10.60;99.90;;;;;;5099126;27;20346;-64
2022/10/02 01:30:40;;;;;;;1999.90;999.90;;;10.60;99.90;;;;;;5090133;28;20121;-64
2022/10/02 01:33:06;;;;;;;1999.90;999.90;;;10.60;99.90;;;;;;5111445;27;20118;-65
2022/10/02 01:35:35;;;;;;;1999.90;999.90;;;10.70;99.90;;;;;;5089701;28;20051;-64
2022/10/02 01:38:07;;;;;;;1999.90;999.90;;;10.70;99.90;;;;;;5102488;28;20468;-64
2022/10/02 01:40:36;;;;;;;1999.90;999.90;;;10.80;99.90;;;;;;5101016;28;20043;-64
2022/10/02 01:43:11;;;;;;;1999.90;999.90;;;10.80;99.90;;;;;;5090119;28;20147;-64
2022/10/02 01:46:04;;;;;;;1999.90;999.90;;;10.80;99.90;;;;;;5098973;28;20059;-64
2022/10/02 01:48:45;;;;;;;1999.90;999.90;;;10.80;99.90;;;;;;5101577;27;20207;-64
2022/10/02 01:51:34;;;;;;;1999.90;999.90;;;10.90;99.90;;;;;;5088318;28;20050;-64
2022/10/02 01:54:08;;;;;;;1999.90;999.90;;;10.90;99.90;;;;;;5109062;27;20426;-64
2022/10/02 01:57:12;;;;;;;1999.90;999.90;;;10.90;99.90;;;;;;5094250;28;20047;-64
2022/10/02 02:00:14;;;;;;;1999.90;999.90;;;10.90;99.90;;;;;;5107104;28;20047;-64
2022/10/02 02:02:49;;;;;;;1999.90;999.90;;;10.90;99.90;;;;;;5092836;27;20043;-64
2022/10/02 02:05:39;;;;;;;1999.90;999.90;;;10.90;99.90;;;;;;5083789;28;20527;-64
2022/10/02 02:08:29;;;;;;;1999.90;999.90;;;10.90;99.90;;;;;;5088537;28;20040;-65
2022/10/02 02:11:12;;;;;;;1999.90;999.90;;;10.90;99.90;;;;;;5088143;28;20049;-64
2022/10/02 02:14:05;;;;;;;1999.90;999.90;;;10.90;99.90;;;;;;5103129;28;20071;-64
2022/10/02 02:16:48;;;;;;;1999.90;999.90;;;10.90;99.90;;;;;;5078612;28;20052;-64
2022/10/02 02:19:20;;;;;;;1999.90;999.90;;;10.90;99.90;;;;;;5084599;28;20044;-64
2022/10/02 02:22:01;;;;;;;1999.90;999.90;;;10.90;99.90;;;;;;5103512;28;20052;-64
2022/10/02 02:24:51;;;;;;;1999.90;999.90;;;10.90;99.90;;;;;;5088588;28;20044;-64
2022/10/02 02:27:22;;;;;;;1999.90;999.90;;;10.90;99.90;;;;;;5099019;28;20067;-64
2022/10/02 02:29:51;;;;;;;1999.90;999.90;;;10.90;99.90;;;;;;5091977;28;20052;-64
2022/10/02 02:32:23;;;;;;;1999.90;999.90;;;11.00;99.90;;;;;;5104207;27;20043;-64
2022/10/02 02:34:54;;;;;;;1999.90;999.90;;;11.00;99.90;;;;;;5101914;27;20046;-64
2022/10/02 02:37:24;;;;;;;1999.90;999.90;;;11.00;99.90;;;;;;5089388;28;20409;-64
2022/10/02 02:40:00;;;;;;;1999.90;999.90;;;11.10;99.90;;;;;;5101893;28;20489;-64
2022/10/02 02:42:30;;;;;;;1999.90;999.90;;;11.10;99.90;;;;;;5099845;28;20044;-64
2022/10/02 02:45:02;;;;;;;1999.90;999.90;;;11.10;99.90;;;;;;5090020;28;20090;-64
2022/10/02 02:47:40;;;;;;;1999.90;999.90;;;11.10;99.90;;;;;;5099006;28;20446;-65
2022/10/02 02:50:08;;;;;;;1999.90;999.90;;;11.10;99.90;;;;;;5101359;28;20048;-64
2022/10/02 02:52:55;;;;;;;1999.90;999.90;;;11.10;99.90;;;;;;5089454;28;20042;-64
2022/10/02 02:55:31;;;;;;;1999.90;999.90;;;11.20;99.90;;;;;;5101309;28;20516;-64
2022/10/02 02:58:04;;;;;;;1999.90;999.90;;;11.20;99.90;;;;;;5084416;28;20122;-64
2022/10/02 03:00:30;;;;;;;1999.90;999.90;;;11.20;99.90;;;;;;5085878;28;20054;-64
2022/10/02 03:02:55;;;;;;;1999.90;999.90;;;11.20;99.90;;;;;;5100772;28;20036;-64
2022/10/02 03:05:23;;;;;;;1999.90;999.90;;;11.20;99.90;;;;;;5104776;28;20031;-64
2022/10/02 03:07:55;;;;;;;1999.90;999.90;;;11.30;99.90;;;;;;5099808;28;20063;-64
2022/10/02 03:10:48;;;;;;;1999.90;999.90;;;11.30;99.90;;;;;;5089044;28;20048;-64
2022/10/02 03:13:53;;;;;;;1999.90;999.90;;;11.40;99.90;;;;;;5107703;28;20077;-64
2022/10/02 03:16:38;;;;;;;1999.90;999.90;;;11.40;99.90;;;;;;5102811;28;20039;-64
2022/10/02 03:19:45;;;;;;;1999.90;999.90;;;11.50;99.90;;;;;;5098087;28;20484;-64
2022/10/02 03:22:40;;;;;;;1999.90;999.90;;;11.50;99.90;;;;;;5103101;28;20061;-64
2022/10/02 03:25:19;;;;;;;1999.90;999.90;;;11.50;99.90;;;;;;5087761;28;20043;-64
2022/10/02 03:28:03;;;;;;;1999.90;999.90;;;11.50;99.90;;;;;;5088198;28;20043;-64
2022/10/02 03:30:30;;;;;;;1999.90;999.90;;;11.50;99.90;;;;;;5101514;28;20055;-65
2022/10/02 03:32:59;;;;;;;1999.90;999.90;;;11.50;99.90;;;;;;5086311;28;20430;-64
2022/10/02 03:35:26;;;;;;;1999.90;999.90;;;11.50;99.90;;;;;;5096552;28;20044;-65
2022/10/02 03:37:57;;;;;;;1999.90;999.90;;;11.50;99.90;;;;;;5105960;28;20051;-64
2022/10/02 03:40:25;;;;;;;1999.90;999.90;;;11.60;99.90;;;;;;5090122;28;20051;-64
2022/10/02 03:42:51;;;;;;;1999.90;999.90;;;11.60;99.90;;;;;;5093515;28;20523;-64
2022/10/02 03:45:18;;;;;;;1999.90;999.90;;;11.60;99.90;;;;;;5102824;28;20194;-65
2022/10/02 03:47:43;;;;;;;1999.90;999.90;;;11.60;99.90;;;;;;5102012;28;20039;-64
2022/10/02 03:50:12;;;;;;;1999.90;999.90;;;11.60;99.90;;;;;;5088704;28;20146;-64
2022/10/02 03:52:37;;;;;;;1999.90;999.90;;;11.60;99.90;;;;;;5089967;28;20074;-65
2022/10/02 03:55:12;;;;;;;1999.90;999.90;;;11.60;99.90;;;;;;5106890;28;20169;-64
2022/10/02 03:57:39;;;;;;;1999.90;999.90;;;11.60;99.90;;;;;;5087183;28;20133;-64
2022/10/02 04:00:11;;;;;;;1999.90;999.90;;;11.60;99.90;;;;;;5104580;28;20158;-64
2022/10/02 04:02:43;;;;;;;1999.90;999.90;;;11.60;99.90;;;;;;5105674;28;20040;-64
2022/10/02 04:05:32;;;;;;;1999.90;999.90;;;11.60;99.90;;;;;;5103231;28;20040;-65
2022/10/02 04:08:03;;;;;;;1999.90;999.90;;;11.50;99.90;;;;;;5093118;28;20119;-64
2022/10/02 04:10:43;;;;;;;1999.90;999.90;;;11.50;99.90;;;;;;5072386;28;20122;-64
2022/10/02 04:13:47;;;;;;;1999.90;999.90;;;11.50;99.90;;;;;;5106646;27;20487;-64
2022/10/02 04:16:28;;;;;;;1999.90;999.90;;;11.50;99.90;;;;;;5006268;28;20042;-64
2022/10/02 04:19:04;;;;;;;1999.90;999.90;;;11.40;99.90;;;;;;5095490;27;20126;-65
2022/10/02 04:21:48;;;;;;;1999.90;999.90;;;11.40;99.90;;;;;;5106867;28;20495;-64
2022/10/02 04:24:27;;;;;;;1999.90;999.90;;;11.40;99.90;;;;;;5111559;27;20047;-64
2022/10/02 04:27:08;;;;;;;1999.90;999.90;;;11.30;99.90;;;;;;5104907;27;20046;-64
2022/10/02 04:29:43;;;;;;;1999.90;999.90;;;11.30;99.90;;;;;;5108258;28;20039;-64
2022/10/02 04:32:11;;;;;;;1999.90;999.90;;;11.30;99.90;;;;;;5091529;28;20439;-65
2022/10/02 04:34:37;;;;;;;1999.90;999.90;;;11.20;99.90;;;;;;5105906;28;20043;-65
2022/10/02 04:37:31;;;;;;;1999.90;999.90;;;11.20;99.90;;;;;;5091552;28;20488;-65
2022/10/02 04:40:08;;;;;;;1999.90;999.90;;;11.20;99.90;;;;;;5105060;28;20042;-65
2022/10/02 04:42:58;;;;;;;1999.90;999.90;;;11.10;99.90;;;;;;5090615;28;20044;-65
2022/10/02 04:45:44;;;;;;;1999.90;999.90;;;11.00;99.90;;;;;;5098424;27;20059;-65
2022/10/02 04:48:22;;;;;;;1999.90;999.90;;;11.00;99.90;;;;;;5098921;27;20036;-64
2022/10/02 04:51:09;;;;;;;1999.90;999.90;;;11.00;99.90;;;;;;5107127;27;20112;-65
2022/10/02 04:54:03;;;;;;;1999.90;999.90;;;11.00;99.90;;;;;;5104339;27;20039;-64
2022/10/02 04:56:29;;;;;;;1999.90;999.90;;;10.90;99.90;;;;;;5087361;28;20040;-65
2022/10/02 04:59:33;;;;;;;1999.90;999.90;;;10.90;99.90;;;;;;5094483;28;20040;-64
2022/10/02 05:02:29;;;;;;;1999.90;999.90;;;10.90;99.90;;;;;;5040276;28;20043;-64
2022/10/02 05:05:14;;;;;;;1999.90;999.90;;;10.80;99.90;;;;;;5106049;27;20058;-64
2022/10/02 05:08:05;;;;;;;1999.90;999.90;;;10.80;99.90;;;;;;5091928;28;20051;-64
2022/10/02 05:10:49;;;;;;;1999.90;999.90;;;10.70;99.90;;;;;;5101133;27;20166;-64
2022/10/02 05:13:52;;;;;;;1999.90;999.90;;;10.70;99.90;;;;;;5105490;28;20040;-64
2022/10/02 05:16:29;;;;;;;1999.90;999.90;;;10.60;99.90;;;;;;5091761;28;20097;-64
2022/10/02 05:19:31;;;;;;;1999.90;999.90;;;10.60;99.90;;;;;;5107169;27;20482;-64
2022/10/02 05:22:41;;;;;;;1999.90;999.90;;;10.60;99.90;;;;;;5078749;28;20126;-64
2022/10/02 05:25:31;;;;;;;1999.90;999.90;;;10.50;99.90;;;;;;5109920;27;20039;-64
2022/10/02 05:28:08;;;;;;;1999.90;999.90;;;10.50;99.90;;;;;;5100111;27;20050;-64
2022/10/02 05:31:09;;;;;;;1999.90;999.90;;;10.40;99.90;;;;;;5103371;28;20150;-64
2022/10/02 05:34:00;;;;;;;1999.90;999.90;;;10.40;99.90;;;;;;5084264;28;20043;-64
2022/10/02 05:36:53;;;;;;;1999.90;999.90;;;10.40;99.90;;;;;;5101091;27;20259;-65
2022/10/02 05:39:29;;;;;;;1999.90;999.90;;;10.30;99.90;;;;;;5099684;28;20381;-64
2022/10/02 05:42:19;;;;;;;1999.90;999.90;;;10.30;99.90;;;;;;5097112;28;20051;-65
2022/10/02 05:44:54;;;;;;;1999.90;999.90;;;10.30;99.90;;;;;;5105543;27;20079;-64
2022/10/02 05:47:37;;;;;;;1999.90;999.90;;;10.30;99.90;;;;;;5103264;27;20087;-64
2022/10/02 05:50:12;;;;;;;;;;;10.30;99.90;;;;;;5096282;27;20076;-64
2022/10/02 05:52:59;;;;;;;1999.90;999.90;;;10.30;99.90;;;;;;5104550;27;20385;-65
2022/10/02 05:55:31;;;;;;;1999.90;999.90;;;10.30;99.90;;;;;;5085824;28;20493;-64
2022/10/02 05:58:26;;;;;;;1999.90;999.90;;;10.30;99.90;;;;;;5085121;28;20043;-65
2022/10/02 06:01:05;;;;;;;1999.90;999.90;;;10.30;99.90;;;;;;5083606;28;20404;-64
2022/10/02 06:03:42;;;;;;;1999.90;999.90;;;10.30;99.90;;;;;;5103830;27;20495;-65
2022/10/02 06:06:29;;;;;;;1999.90;999.90;;;10.40;99.90;;;;;;5096656;27;20059;-64
2022/10/02 06:09:01;;;;;;;1999.90;999.90;;;10.40;99.90;;;;;;5106561;28;20575;-64
2022/10/02 06:11:39;;;;;;;1999.90;999.90;;;10.40;99.90;;;;;;5103550;28;20047;-64
2022/10/02 06:14:08;;;;;;;1999.90;999.90;;;10.40;99.90;;;;;;5102210;27;20040;-64
2022/10/02 06:16:39;;;;;;;1999.90;999.90;;;10.40;99.90;;;;;;5086462;28;20043;-64
2022/10/02 06:19:13;;;;;;;1999.90;999.90;;;10.50;99.90;;;;;;5104441;27;20117;-65
2022/10/02 06:21:48;;;;;;;1999.90;999.90;;;10.40;99.90;;;;;;5092183;28;20047;-65
2022/10/02 06:24:40;;;;;;;1999.90;999.90;;;10.50;99.90;;;;;;5088654;28;20035;-64
2022/10/02 06:27:21;;;;;;;1999.90;999.90;;;10.50;99.90;;;;;;5076409;28;20513;-64
2022/10/02 06:29:56;;;;;;;1999.90;999.90;;;10.60;99.90;;;;;;5087819;28;20047;-64
2022/10/02 06:32:54;;;;;;;1999.90;999.90;;;10.60;99.90;;;;;;5088339;28;20126;-64
2022/10/02 06:35:29;;;;;;;1999.90;999.90;;;10.70;99.90;;;;;;5086444;28;20055;-65
2022/10/02 06:38:24;;;;;;;1999.90;999.90;;;10.70;99.90;;;;;;5093692;27;20054;-64
2022/10/02 06:41:10;;;;;;;1999.90;999.90;;;10.90;99.90;;;;;;5102402;27;20036;-64
2022/10/02 06:43:57;;;;;;;1999.90;999.90;;;11.00;99.90;;;;;;5078754;28;20098;-65
2022/10/02 06:47:00;;;;;;;1999.90;999.90;;;11.20;99.90;;;;;;5101158;28;20067;-65
2022/10/02 06:49:40;;;;;;;1999.90;999.90;;;11.40;99.90;;;;;;5089909;28;20422;-64
2022/10/02 06:52:14;;;;;;;1999.90;999.90;;;11.60;99.90;;;;;;5088190;28;20035;-65
2022/10/02 06:54:40;;;;;;;1999.90;999.90;;;11.80;99.90;;;;;;5086790;28;20053;-65
2022/10/02 06:57:28;;;;;;;1999.90;999.90;;;11.90;99.90;;;;;;5088328;28;20503;-65
2022/10/02 07:00:15;;;;;;;1999.90;999.90;;;12.10;99.90;;;;;;5102434;28;20043;-64
2022/10/02 07:03:05;;;;;;;1999.90;999.90;;;12.10;99.90;;;;;;5100883;28;20140;-64
2022/10/02 07:05:52;;;;;;;1999.90;999.90;;;12.30;99.90;;;;;;5105942;28;20040;-65
2022/10/02 07:08:39;;;;;;;1999.90;999.90;;;12.30;99.90;;;;;;5087768;28;20093;-65
2022/10/02 07:11:39;;;;;;;1999.90;999.90;;;12.40;99.90;;;;;;5072231;28;20065;-65
2022/10/02 07:14:29;;;;;;;1999.90;999.90;;;12.40;99.90;;;;;;5099282;28;20086;-65
2022/10/02 07:17:33;;;;;;;1999.90;999.90;;;12.40;99.90;;;;;;5101083;28;20043;-65
2022/10/02 07:20:04;;;;;;;1999.90;999.90;;;12.40;99.90;;;;;;5100684;28;20563;-65
2022/10/02 07:22:55;;;;;;;1999.90;999.90;;;12.40;99.90;;;;;;5092600;28;20074;-65
2022/10/02 07:25:29;;;;;;;1999.90;999.90;;;12.50;99.90;;;;;;5106676;28;20429;-65
2022/10/02 07:28:15;;;;;;;1999.90;999.90;;;12.50;99.90;;;;;;5106281;28;20040;-65
2022/10/02 07:31:08;;;;;;;1999.90;999.90;;;12.50;99.90;;;;;;5104851;28;20465;-64
2022/10/02 07:33:51;;;;;;;1999.90;999.90;;;12.70;99.90;;;;;;5090847;28;20114;-65
2022/10/02 07:36:34;;;;;;;1999.90;999.90;;;12.80;99.90;;;;;;5086583;28;20310;-65
2022/10/02 07:39:16;;;;;;;1999.90;999.90;;;12.90;99.90;;;;;;5103351;28;20040;-65
2022/10/02 07:42:06;;;;;;;1999.90;999.90;;;13.00;99.90;;;;;;5110141;28;20035;-65
2022/10/02 07:44:47;;;;;;;1999.90;999.90;;;13.10;99.90;;;;;;5102953;28;20081;-65
2022/10/02 07:48:00;;;;;;;1999.90;999.90;;;13.10;99.90;;;;;;5090578;28;20519;-65
2022/10/02 07:50:45;;;;;;;1999.90;999.90;;;13.10;99.90;;;;;;5099263;27;20779;-65
2022/10/02 07:53:27;;;;;;;1999.90;999.90;;;13.00;99.90;;;;;;5091385;28;20100;-64
2022/10/02 07:55:54;;;;;;;1999.90;999.90;;;13.00;99.90;;;;;;5106250;28;20051;-65
2022/10/02 07:58:36;;;;;;;1999.90;999.90;;;13.10;99.90;;;;;;5104117;28;20165;-65
2022/10/02 08:01:07;;;;;;;1999.90;999.90;;;13.10;99.90;;;;;;5108770;28;20047;-65
2022/10/02 08:03:38;;;;;;;1999.90;999.90;;;13.10;99.90;;;;;;5106350;28;20119;-65
2022/10/02 08:06:05;;;;;;;1999.90;999.90;;;13.20;99.90;;;;;;5081018;28;20043;-65
2022/10/02 08:08:48;;;;;;;1999.90;999.90;;;13.20;99.90;;;;;;5110484;27;20561;-65
2022/10/02 08:11:30;;;;;;;1999.90;999.90;;;13.20;99.90;;;;;;5108527;27;20050;-64
2022/10/02 08:14:37;;;;;;;1999.90;999.90;;;13.20;99.90;;;;;;5093535;28;20453;-64
2022/10/02 08:17:26;;;;;;;1999.90;999.90;;;13.20;99.90;;;;;;5028989;28;20061;-64
2022/10/02 08:19:56;;;;;;;1999.90;999.90;;;13.20;99.90;;;;;;5022886;28;20065;-64
2022/10/02 08:22:29;;;;;;;1999.90;999.90;;;13.10;99.90;;;;;;5023058;28;20120;-65
2022/10/02 08:24:58;;;;;;;1999.90;999.90;;;13.10;99.90;;;;;;5004825;28;20127;-65
2022/10/02 08:27:32;;;;;;;1999.90;999.90;;;13.10;99.90;;;;;;5024714;28;20450;-65
2022/10/02 08:30:03;;;;;;;1999.90;999.90;;;13.00;99.90;;;;;;5009279;28;20547;-64
2022/10/02 08:32:35;;;;;;;1999.90;999.90;;;13.00;99.90;;;;;;5025274;28;20611;-65
2022/10/02 08:35:04;;;;;;;1999.90;999.90;;;13.10;99.90;;;;;;5025981;28;20045;-65
2022/10/02 08:37:49;;;;;;;1999.90;999.90;;;13.10;99.90;;;;;;5026577;28;20515;-65
2022/10/02 08:40:39;;;;;;;1999.90;999.90;;;13.30;99.90;;;;;;5040156;28;20460;-65
2022/10/02 08:43:53;;;;;;;1999.90;999.90;;;13.40;99.90;;;;;;5022954;28;20505;-65
2022/10/02 08:46:34;;;;;;;1999.90;999.90;;;13.70;99.90;;;;;;5042225;28;20057;-64
2022/10/02 08:49:36;;;;;;;1999.90;999.90;;;14.70;99.90;;;;;;5005636;28;20526;-65
2022/10/02 08:52:24;;;;;;;1999.90;999.90;;;15.70;99.90;;;;;;5049330;28;20054;-65
2022/10/02 08:55:36;;;;;;;1999.90;999.90;;;16.60;99.90;;;;;;5109045;27;20050;-65
2022/10/02 08:58:40;;;;;;;1999.90;999.90;;;17.40;99.90;;;;;;5094118;28;20882;-65
2022/10/02 09:01:37;;;;;;;1999.90;999.90;;;17.90;99.90;;;;;;5115266;27;20081;-65
2022/10/02 09:04:21;;;;;;;1999.90;999.90;;;18.40;99.90;;;;;;5073184;27;20047;-65
2022/10/02 09:07:20;;;;;;;1999.90;999.90;;;18.60;99.90;;;;;;5107107;27;20131;-65
2022/10/02 09:10:25;;;;;;;1999.90;999.90;;;18.70;99.90;;;;;;5109281;27;20089;-64
2022/10/02 09:12:57;;;;;;;1999.90;999.90;;;18.90;99.90;;;;;;5092773;27;20080;-66
2022/10/02 09:15:35;;;;;;;1999.90;999.90;;;18.70;99.90;;;;;;5091109;28;20582;-65
2022/10/02 09:18:19;;;;;;;1999.90;999.90;;;18.10;99.90;;;;;;5099475;27;20047;-65
2022/10/02 09:21:15;;;;;;;1999.90;999.90;;;17.70;99.90;;;;;;5104097;27;20043;-65
2022/10/02 09:24:12;;;;;;;1999.90;999.90;;;17.20;99.90;;;;;;5102754;27;20035;-65
2022/10/02 09:27:07;;;;;;;1999.90;999.90;;;17.40;99.90;;;;;;5105272;27;20491;-65
2022/10/02 09:30:02;;;;;;;1999.90;999.90;;;16.90;99.90;;;;;;5105805;27;20492;-65
2022/10/02 09:32:46;;;;;;;1999.90;999.90;;;16.50;99.90;;;;;;5061387;27;20053;-65
2022/10/02 09:35:40;;;;;;;1999.90;999.90;;;16.00;99.90;;;;;;5104424;27;20047;-65
2022/10/02 09:38:37;;;;;;;1999.90;999.90;;;15.70;99.90;;;;;;5084927;28;20058;-65
2022/10/02 09:41:28;;;;;;;1999.90;999.90;;;15.50;99.90;;;;;;5088232;28;20046;-65
2022/10/02 09:44:15;;;;;;;1999.90;999.90;;;15.30;99.90;;;;;;5087585;27;20059;-65
2022/10/02 09:47:18;;;;;;;1999.90;999.90;;;15.10;99.90;;;;;;5084261;27;20493;-65
2022/10/02 09:49:55;;;;;;;1999.90;999.90;;;15.10;99.90;;;;;;5102171;27;20408;-65
2022/10/02 09:52:23;;;;;;;1999.90;999.90;;;15.40;99.90;;;;;;5093247;28;20051;-65
2022/10/02 09:55:07;;;;;;;1999.90;999.90;;;15.80;99.90;;;;;;5103844;28;20743;-65
2022/10/02 09:57:41;;;;;;;1999.90;999.90;;;16.30;99.90;;;;;;5090674;28;20055;-65
2022/10/02 10:00:36;;;;;;;1999.90;999.90;;;16.70;99.90;;;;;;5102356;28;20075;-65
2022/10/02 10:03:35;;;;;;;1999.90;999.90;;;17.00;99.90;;;;;;5107331;28;20042;-65
2022/10/02 10:06:19;;;;;;;1999.90;999.90;;;17.30;99.90;;;;;;5101113;27;20142;-65
2022/10/02 10:09:05;;;;;;;1999.90;999.90;;;17.50;99.90;;;;;;5107600;27;20475;-65
2022/10/02 10:11:40;;;;;;;1999.90;999.90;;;17.70;99.90;;;;;;5103634;28;20040;-65
2022/10/02 10:14:44;;;;;;;1999.90;999.90;;;17.70;99.90;;;;;;5090242;28;20130;-65
2022/10/02 10:17:29;;;;;;;1999.90;999.90;;;17.80;99.90;;;;;;5106722;27;20160;-65
2022/10/02 10:20:35;;;;;;;1999.90;999.90;;;17.90;99.90;;;;;;5084326;28;20089;-65
2022/10/02 10:23:07;;;;;;;1999.90;999.90;;;18.10;99.90;;;;;;5106519;28;20044;-65
2022/10/02 10:25:38;;;;;;;1999.90;999.90;;;18.40;99.90;;;;;;5102761;27;20031;-65
2022/10/02 10:28:32;;;;;;;1999.90;999.90;;;18.80;99.90;;;;;;5076937;27;20100;-65
2022/10/02 10:31:24;;;;;;;1999.90;999.90;;;19.00;99.90;;;;;;5106534;27;20416;-65
2022/10/02 10:34:27;;;;;;;1999.90;999.90;;;18.70;99.90;;;;;;5085991;28;20349;-65
2022/10/02 10:40:36;;;;;;;1999.90;999.90;;;17.50;99.90;;;;;;5051133;28;20378;-65
2022/10/02 10:43:21;;;;;;;1999.90;999.90;;;17.50;99.90;;;;;;5088840;28;20174;-65
2022/10/02 10:46:14;;;;;;;1999.90;999.90;;;17.70;99.90;;;;;;5085136;28;20055;-65
2022/10/02 10:48:47;;;;;;;;;;;17.90;99.90;;;;;;5086169;28;20104;-65
2022/10/02 10:51:42;;;;;;;1999.90;999.90;;;18.20;99.90;;;;;;5087090;27;19924;-65
2022/10/02 10:54:21;;;;;;;1999.90;999.90;;;18.40;99.90;;;;;;5102139;28;20052;-65
2022/10/02 10:57:03;;;;;;;1999.90;999.90;;;18.40;99.90;;;;;;5117802;27;20040;-64
2022/10/02 10:59:41;;;;;;;1999.90;999.90;;;18.40;99.90;;;;;;5106517;28;20039;-65
2022/10/02 11:02:44;;;;;;;1999.90;999.90;;;18.30;99.90;;;;;;5107025;28;20152;-65
2022/10/02 11:05:26;;;;;;;1999.90;999.90;;;18.20;99.90;;;;;;5088529;28;20043;-66
2022/10/02 11:08:20;;;;;;;1999.90;999.90;;;17.80;99.90;;;;;;5099475;28;20043;-65
2022/10/02 11:10:49;;;;;;;1999.90;999.90;;;17.60;99.90;;;;;;5109734;28;20611;-65
2022/10/02 11:13:45;;;;;;;1999.90;999.90;;;17.60;99.90;;;;;;5101469;28;20126;-65
2022/10/02 11:17:03;;;;;;;1999.90;999.90;;;17.60;99.90;;;;;;5109141;28;20055;-65
2022/10/02 11:19:41;;;;;;;1999.90;999.90;;;17.70;99.90;;;;;;5095824;28;20043;-65
2022/10/02 11:22:30;;;;;;;1999.90;999.90;;;17.60;99.90;;;;;;5105280;28;20179;-65
2022/10/02 11:25:14;;;;;;;1999.90;999.90;;;17.20;99.90;;;;;;5094649;28;20100;-65
2022/10/02 11:28:10;;;;;;;1999.90;999.90;;;17.00;99.90;;;;;;5103866;28;20043;-65
2022/10/02 11:31:10;;;;;;;1999.90;999.90;;;17.20;99.90;;;;;;5107706;28;20071;-66
2022/10/02 11:33:39;;;;;;;1999.90;999.90;;;17.50;99.90;;;;;;5039714;28;20429;-65
2022/10/02 11:36:19;;;;;;;1999.90;999.90;;;17.70;99.90;;;;;;5042912;28;20550;-64
2022/10/02 11:39:06;;;;;;;1999.90;999.90;;;17.90;99.90;;;;;;5026344;28;20159;-65
2022/10/02 11:42:04;;;;;;;1999.90;999.90;;;18.10;99.90;;;;;;5030749;28;20441;-66
2022/10/02 11:45:16;;;;;;;1999.90;999.90;;;18.30;99.90;;;;;;5049770;28;20239;-65
2022/10/02 11:48:01;;;;;;;1999.90;999.90;;;18.70;99.90;;;;;;5021291;28;20049;-65
2022/10/02 11:51:08;;;;;;;1999.90;999.90;;;18.80;99.90;;;;;;5048176;28;20085;-65
2022/10/02 11:53:42;;;;;;;1999.90;999.90;;;18.60;99.90;;;;;;5044255;28;20398;-65
2022/10/02 11:56:32;;;;;;;1999.90;999.90;;;18.60;99.90;;;;;;5044309;28;20096;-65
2022/10/02 11:59:17;;;;;;;1999.90;999.90;;;18.50;99.90;;;;;;5051423;28;20583;-65
2022/10/02 12:02:01;;;;;;;1999.90;999.90;;;18.20;99.90;;;;;;5041393;28;20052;-65
2022/10/02 12:04:40;;;;;;;1999.90;999.90;;;17.80;99.90;;;;;;5052100;28;20047;-65
2022/10/02 12:07:31;;;;;;;1999.90;999.90;;;17.60;99.90;;;;;;5038371;28;20061;-65
2022/10/02 12:10:35;;;;;;;1999.90;999.90;;;17.80;99.90;;;;;;5068463;28;20131;-65
2022/10/02 12:13:00;;;;;;;;;;;18.10;99.90;;;;;;5091693;27;20054;-65
2022/10/02 12:16:00;;;;;;;1999.90;999.90;;;18.10;99.90;;;;;;5110087;27;19923;-65
2022/10/02 12:18:38;;;;;;;1999.90;999.90;;;18.30;99.90;;;;;;5084770;28;20391;-65
2022/10/02 12:27:16;;;;;;;1999.90;999.90;;;18.40;99.90;;;;;;5105228;27;20297;-65
2022/10/02 12:29:49;;;;;;;1999.90;999.90;;;18.50;99.90;;;;;;5107441;27;20165;-65
2022/10/02 12:32:48;;;;;;;1999.90;999.90;;;18.50;99.90;;;;;;5104104;27;20039;-65
2022/10/02 12:35:28;;;;;;;1999.90;999.90;;;18.40;99.90;;;;;;5105886;27;20412;-65
2022/10/02 12:38:37;;;;;;;1999.90;999.90;;;18.10;99.90;;;;;;5093190;28;20096;-65
2022/10/02 12:41:17;;;;;;;1999.90;999.90;;;17.80;99.90;;;;;;5108934;27;20380;-65
2022/10/02 12:44:15;;;;;;;1999.90;999.90;;;17.60;99.90;;;;;;5065730;28;20064;-65
2022/10/02 12:47:05;;;;;;;1999.90;999.90;;;17.50;99.90;;;;;;5091269;28;20040;-65
2022/10/02 12:49:38;;;;;;;1999.90;999.90;;;17.60;99.90;;;;;;5102857;27;20466;-65
2022/10/02 12:52:49;;;;;;;1999.90;999.90;;;17.50;99.90;;;;;;5105120;27;20036;-65
2022/10/02 12:55:53;;;;;;;1999.90;999.90;;;17.30;99.90;;;;;;5107476;27;20434;-65
2022/10/02 12:58:24;;;;;;;1999.90;999.90;;;17.10;99.90;;;;;;5107567;27;20039;-65
2022/10/02 13:01:12;;;;;;;1999.90;999.90;;;16.90;99.90;;;;;;5074998;28;20043;-64
2022/10/02 13:03:55;;;;;;;1999.90;999.90;;;16.60;99.90;;;;;;5111467;27;20120;-65
2022/10/02 13:06:56;;;;;;;1999.90;999.90;;;16.30;99.90;;;;;;5112891;27;20047;-65
2022/10/02 13:09:33;;;;;;;1999.90;999.90;;;16.20;99.90;;;;;;5106361;27;20607;-65
2022/10/02 13:12:04;;;;;;;1999.90;999.90;;;16.20;99.90;;;;;;5088569;28;20097;-65
2022/10/02 13:15:01;;;;;;;1999.90;999.90;;;16.30;99.90;;;;;;5091098;28;20146;-65
2022/10/02 13:17:45;;;;;;;1999.90;999.90;;;16.30;99.90;;;;;;5089067;28;20035;-65
2022/10/02 13:20:13;;;;;;;1999.90;999.90;;;16.40;99.90;;;;;;5112028;27;20396;-65
2022/10/02 13:22:59;;;;;;;1999.90;999.90;;;16.40;99.90;;;;;;5089347;28;20044;-65
2022/10/02 13:25:34;;;;;;;1999.90;999.90;;;16.30;99.90;;;;;;5100615;27;20118;-65
2022/10/02 13:28:27;;;;;;;1999.90;999.90;;;16.10;99.90;;;;;;5107653;27;20427;-65